createdAt,value
2019-05-11T00:01:07.654Z,81.86
2019-05-11T00:04:12.133Z,81.21
2019-05-11T00:07:16.607Z,81.62
2019-05-11T00:10:23.515Z,81.73
2019-05-11T00:13:27.298Z,82.31
2019-05-11T00:16:31.774Z,82.45
2019-05-11T00:19:36.257Z,82.63
2019-05-11T00:22:40.741Z,82.63
2019-05-11T00:25:45.214Z,83.08
2019-05-11T00:28:49.973Z,83.39
2019-05-11T00:31:54.809Z,83.77
2019-05-11T00:34:59.635Z,83.14
2019-05-11T00:38:04.473Z,82.93
2019-05-11T00:41:09.304Z,82.75
2019-05-11T00:44:14.147Z,83.10
2019-05-11T00:47:18.972Z,83.19
2019-05-11T00:50:38.117Z,83.70
2019-05-11T00:53:30.285Z,83.72
2019-05-11T00:56:34.749Z,84.15
2019-05-11T00:59:39.232Z,84.90
2019-05-11T01:02:43.702Z,84.63
2019-05-11T01:05:48.492Z,84.53
2019-05-11T01:08:52.970Z,84.26
2019-05-11T01:11:57.743Z,84.27
2019-05-11T01:15:02.673Z,84.28
2019-05-11T01:18:07.405Z,83.89
2019-05-11T01:21:12.347Z,83.91
2019-05-11T01:24:17.175Z,83.79
2019-05-11T01:27:22.114Z,83.30
2019-05-11T01:30:26.597Z,83.32
2019-05-11T01:33:31.368Z,83.55
2019-05-11T01:36:36.204Z,83.91
2019-05-11T01:39:40.682Z,84.74
2019-05-11T01:42:45.456Z,84.67
2019-05-11T01:45:50.289Z,84.74
2019-05-11T01:48:55.017Z,84.47
2019-05-11T01:51:59.503Z,84.24
2019-05-11T01:55:04.001Z,83.61
2019-05-11T01:58:08.439Z,83.58
2019-05-11T02:01:12.883Z,83.18
2019-05-11T02:04:17.615Z,83.35
2019-05-11T02:07:22.382Z,81.94
2019-05-11T02:10:26.812Z,81.10
2019-05-11T02:13:31.249Z,81.09
2019-05-11T02:16:36.032Z,80.57
2019-05-11T02:19:40.460Z,80.42
2019-05-11T02:22:44.906Z,80.34
2019-05-11T02:25:49.351Z,79.08
2019-05-11T02:28:53.798Z,79.33
2019-05-11T02:31:58.251Z,79.94
2019-05-11T02:35:02.710Z,80.96
2019-05-11T02:38:07.398Z,81.18
2019-05-11T02:41:11.841Z,81.53
2019-05-11T02:44:16.277Z,80.76
2019-05-11T02:47:20.981Z,81.31
2019-05-11T02:50:25.448Z,81.49
2019-05-11T02:53:31.327Z,82.01
2019-05-11T02:56:35.776Z,81.21
2019-05-11T02:59:40.517Z,81.83
2019-05-11T03:02:44.962Z,82.40
2019-05-11T03:05:49.469Z,82.86
2019-05-11T03:08:53.997Z,83.32
2019-05-11T03:11:58.614Z,82.36
2019-05-11T03:15:03.473Z,82.60
2019-05-11T03:18:07.897Z,83.33
2019-05-11T03:21:12.340Z,83.19
2019-05-11T03:24:17.033Z,81.63
2019-05-11T03:27:21.758Z,81.30
2019-05-11T03:30:26.202Z,82.63
2019-05-11T03:33:30.659Z,81.66
2019-05-11T03:36:35.346Z,81.10
2019-05-11T03:39:39.785Z,79.96
2019-05-11T03:42:44.230Z,79.85
2019-05-11T03:45:48.665Z,79.91
2019-05-11T03:48:53.100Z,79.38
2019-05-11T03:51:57.548Z,79.17
2019-05-11T03:55:01.988Z,79.14
2019-05-11T03:58:06.432Z,78.45
2019-05-11T04:01:11.135Z,78.43
2019-05-11T04:04:16.574Z,78.62
2019-05-11T04:07:21.291Z,78.90
2019-05-11T04:10:25.997Z,79.00
2019-05-11T04:13:30.548Z,79.54
2019-05-11T04:16:34.991Z,79.20
2019-05-11T04:19:39.430Z,79.35
2019-05-11T04:22:44.155Z,79.15
2019-05-11T04:25:48.591Z,78.76
2019-05-11T04:28:53.037Z,78.79
2019-05-11T04:31:57.848Z,78.41
2019-05-11T04:35:02.323Z,78.37
2019-05-11T04:38:06.749Z,79.18
2019-05-11T04:41:11.516Z,78.62
2019-05-11T04:44:16.315Z,78.62
2019-05-11T04:47:21.076Z,78.78
2019-05-11T04:50:25.515Z,78.33
2019-05-11T04:53:29.961Z,78.44
2019-05-11T04:56:34.400Z,79.09
2019-05-11T04:59:39.182Z,78.94
2019-05-11T05:02:43.626Z,78.43
2019-05-11T05:05:48.200Z,78.54
2019-05-11T05:08:52.583Z,78.34
2019-05-11T05:11:57.401Z,77.99
2019-05-11T05:15:01.832Z,77.66
2019-05-11T05:18:06.276Z,77.43
2019-05-11T05:21:10.966Z,77.49
2019-05-11T05:24:15.688Z,76.95
2019-05-11T05:27:20.135Z,76.91
2019-05-11T05:30:24.571Z,76.97
2019-05-11T05:33:30.093Z,76.74
2019-05-11T05:36:34.529Z,76.67
2019-05-11T05:39:38.976Z,77.56
2019-05-11T05:42:43.775Z,77.21
2019-05-11T05:45:48.211Z,77.36
2019-05-11T05:48:53.031Z,77.89
2019-05-11T05:51:58.460Z,77.74
2019-05-11T05:55:03.767Z,78.17
2019-05-11T05:58:08.555Z,78.50
2019-05-11T06:01:13.311Z,78.76
2019-05-11T06:04:17.756Z,79.05
2019-05-11T06:07:22.543Z,79.11
2019-05-11T06:10:26.979Z,79.46
2019-05-11T06:13:44.489Z,79.47
2019-05-11T06:16:38.159Z,79.31
2019-05-11T06:19:42.610Z,80.35
2019-05-11T06:22:47.319Z,80.77
2019-05-11T06:25:51.770Z,80.17
2019-05-11T06:28:56.215Z,81.01
2019-05-11T06:32:00.662Z,81.08
2019-05-11T06:35:07.317Z,80.60
2019-05-11T06:38:11.845Z,80.29
2019-05-11T06:41:16.747Z,79.89
2019-05-11T06:44:21.200Z,79.62
2019-05-11T06:47:25.879Z,80.00
2019-05-11T06:50:30.331Z,80.08
2019-05-11T06:53:34.800Z,80.12
2019-05-11T06:56:39.259Z,80.22
2019-05-11T06:59:43.717Z,79.62
2019-05-11T07:02:48.410Z,79.91
2019-05-11T07:05:52.869Z,79.86
2019-05-11T07:08:57.323Z,79.53
2019-05-11T07:12:02.132Z,79.30
2019-05-11T07:15:08.919Z,79.65
2019-05-11T07:18:13.356Z,78.85
2019-05-11T07:21:17.803Z,78.47
2019-05-11T07:24:22.251Z,80.03
2019-05-11T07:27:26.681Z,81.78
2019-05-11T07:30:31.401Z,82.02
2019-05-11T07:33:37.887Z,82.57
2019-05-11T07:36:42.000Z,82.67
2019-05-11T07:39:48.604Z,81.93
2019-05-11T07:42:52.877Z,82.02
2019-05-11T07:45:58.445Z,81.33
2019-05-11T07:49:03.027Z,79.47
2019-05-11T07:52:07.859Z,78.99
2019-05-11T07:55:12.689Z,76.94
2019-05-11T07:58:20.224Z,75.36
2019-05-11T08:01:23.631Z,74.66
2019-05-11T08:04:28.905Z,73.97
2019-05-11T08:07:33.468Z,75.12
2019-05-11T08:10:39.045Z,75.66
2019-05-11T08:13:43.735Z,75.47
2019-05-11T08:16:48.247Z,73.49
2019-05-11T08:19:53.026Z,69.56
2019-05-11T08:22:58.665Z,70.34
2019-05-11T08:26:03.607Z,69.31
2019-05-11T08:29:08.341Z,72.00
2019-05-11T08:32:12.793Z,68.27
2019-05-11T08:35:18.012Z,68.27
2019-05-11T08:38:22.842Z,69.58
2019-05-11T08:41:28.111Z,67.63
2019-05-11T08:44:33.019Z,68.06
2019-05-11T08:47:37.932Z,69.59
2019-05-11T08:50:42.476Z,68.19
2019-05-11T08:53:48.041Z,65.58
2019-05-11T08:56:52.973Z,65.16
2019-05-11T08:59:58.009Z,65.76
2019-05-11T09:03:02.621Z,67.68
2019-05-11T09:06:08.455Z,70.39
2019-05-11T09:09:13.425Z,70.77
2019-05-11T09:12:18.291Z,71.06
2019-05-11T09:15:33.490Z,68.99
2019-05-11T09:18:29.362Z,69.44
2019-05-11T09:21:33.811Z,73.03
2019-05-11T09:24:38.745Z,70.12
2019-05-11T09:27:43.573Z,68.10
2019-05-11T09:30:48.429Z,64.70
2019-05-11T09:33:53.227Z,62.93
2019-05-11T09:36:58.658Z,55.75
2019-05-11T09:40:03.833Z,53.20
2019-05-11T09:43:08.629Z,55.77
2019-05-11T09:46:13.369Z,50.82
2019-05-11T09:49:18.652Z,52.71
2019-05-11T09:52:23.551Z,52.29
2019-05-11T09:55:28.419Z,48.49
2019-05-11T09:58:32.921Z,49.84
2019-05-11T10:01:37.951Z,47.27
2019-05-11T10:04:42.880Z,46.34
2019-05-11T10:07:48.493Z,45.76
2019-05-11T10:10:53.301Z,48.59
2019-05-11T10:13:57.949Z,45.78
2019-05-11T10:17:02.726Z,45.50
2019-05-11T10:20:09.560Z,45.52
2019-05-11T10:23:14.065Z,45.42
2019-05-11T10:26:18.971Z,45.04
2019-05-11T10:29:23.529Z,45.86
2019-05-11T10:32:28.810Z,46.32
2019-05-11T10:35:33.672Z,44.33
2019-05-11T10:38:38.403Z,45.57
2019-05-11T10:41:42.852Z,44.74
2019-05-11T10:44:47.948Z,46.47
2019-05-11T10:47:55.737Z,46.03
2019-05-11T10:50:58.757Z,46.67
2019-05-11T10:54:03.238Z,45.93
2019-05-11T10:57:08.436Z,45.45
2019-05-11T11:00:13.208Z,47.56
2019-05-11T11:03:18.043Z,46.54
2019-05-11T11:06:23.302Z,44.11
2019-05-11T11:09:28.418Z,46.58
2019-05-11T11:12:32.958Z,46.76
2019-05-11T11:15:38.085Z,43.98
2019-05-11T11:18:42.976Z,43.10
2019-05-11T11:21:48.730Z,42.82
2019-05-11T11:24:53.780Z,45.20
2019-05-11T11:27:58.437Z,45.32
2019-05-11T11:31:03.280Z,44.25
2019-05-11T11:34:08.390Z,44.00
2019-05-11T11:37:13.209Z,43.42
2019-05-11T11:40:18.018Z,45.12
2019-05-11T11:43:22.962Z,44.10
2019-05-11T11:46:27.812Z,42.48
2019-05-11T11:49:32.403Z,45.97
2019-05-11T11:52:38.323Z,43.70
2019-05-11T11:55:42.985Z,43.24
2019-05-11T11:58:48.832Z,45.62
2019-05-11T12:01:53.581Z,43.63
2019-05-11T12:04:58.387Z,44.93
2019-05-11T12:08:03.065Z,44.67
2019-05-11T12:11:08.045Z,45.28
2019-05-11T12:14:12.638Z,44.73
2019-05-11T12:17:18.193Z,46.11
2019-05-11T12:20:22.863Z,42.53
2019-05-11T12:23:28.463Z,41.78
2019-05-11T12:26:33.308Z,43.48
2019-05-11T12:29:38.537Z,40.90
2019-05-11T12:32:48.754Z,43.63
2019-05-11T12:35:53.403Z,41.07
2019-05-11T12:38:58.184Z,40.27
2019-05-11T12:42:02.595Z,40.53
2019-05-11T12:45:08.941Z,41.39
2019-05-11T12:48:13.389Z,38.64
2019-05-11T12:51:18.844Z,40.05
2019-05-11T12:54:23.576Z,38.40
2019-05-11T12:57:28.301Z,38.20
2019-05-11T13:00:33.425Z,38.99
2019-05-11T13:03:38.581Z,38.80
2019-05-11T13:06:44.116Z,37.01
2019-05-11T13:09:48.851Z,37.29
2019-05-11T13:12:53.577Z,39.40
2019-05-11T13:15:58.507Z,40.96
2019-05-11T13:19:03.144Z,41.40
2019-05-11T13:22:07.986Z,41.14
2019-05-11T13:25:13.014Z,42.36
2019-05-11T13:28:18.032Z,47.64
2019-05-11T13:31:22.984Z,51.12
2019-05-11T13:34:31.195Z,53.44
2019-05-11T13:37:33.875Z,57.26
2019-05-11T13:40:38.630Z,57.42
2019-05-11T13:43:43.341Z,53.30
2019-05-11T13:46:48.272Z,53.32
2019-05-11T13:49:53.007Z,51.69
2019-05-11T13:52:58.380Z,51.41
2019-05-11T13:56:03.388Z,50.44
2019-05-11T13:59:10.594Z,49.87
2019-05-11T14:02:15.066Z,48.80
2019-05-11T14:05:19.514Z,48.45
2019-05-11T14:08:23.947Z,48.15
2019-05-11T14:11:28.680Z,46.46
2019-05-11T14:14:33.205Z,48.77
2019-05-11T14:17:38.162Z,48.87
2019-05-11T14:20:43.086Z,50.44
2019-05-11T14:23:48.449Z,49.95
2019-05-11T14:26:53.241Z,52.47
2019-05-11T14:29:58.005Z,58.68
2019-05-11T14:33:02.925Z,62.60
2019-05-11T14:36:08.611Z,65.25
2019-05-11T14:39:13.184Z,68.92
2019-05-11T14:42:22.145Z,70.01
2019-05-11T14:45:23.805Z,69.26
2019-05-11T14:48:30.210Z,70.74
2019-05-11T14:51:34.855Z,71.54
2019-05-11T14:54:39.328Z,72.23
2019-05-11T14:57:43.769Z,72.94
2019-05-11T15:00:48.754Z,75.26
2019-05-11T15:03:53.329Z,75.05
2019-05-11T15:06:58.008Z,76.96
2019-05-11T15:10:02.561Z,75.33
2019-05-11T15:13:08.027Z,74.76
2019-05-11T15:16:12.721Z,75.94
2019-05-11T15:19:18.481Z,74.14
2019-05-11T15:22:23.431Z,72.69
2019-05-11T15:25:28.830Z,72.94
2019-05-11T15:28:33.916Z,74.45
2019-05-11T15:31:38.649Z,73.89
2019-05-11T15:34:43.085Z,74.73
2019-05-11T15:37:48.131Z,74.07
2019-05-11T15:40:52.797Z,75.18
2019-05-11T15:43:57.922Z,74.72
2019-05-11T15:47:02.712Z,73.76
2019-05-11T15:50:10.984Z,74.47
2019-05-11T15:53:17.667Z,74.79
2019-05-11T15:56:21.919Z,72.90
2019-05-11T15:59:27.971Z,73.83
2019-05-11T16:02:33.221Z,74.42
2019-05-11T16:05:37.659Z,74.21
2019-05-11T16:08:45.113Z,74.04
2019-05-11T16:11:48.547Z,74.85
2019-05-11T16:14:52.982Z,74.53
2019-05-11T16:17:57.904Z,74.82
2019-05-11T16:21:02.337Z,75.66
2019-05-11T16:24:08.012Z,74.09
2019-05-11T16:27:12.784Z,72.08
2019-05-11T16:30:20.871Z,71.68
2019-05-11T16:33:24.011Z,73.09
2019-05-11T16:36:28.745Z,72.91
2019-05-11T16:39:33.187Z,74.40
2019-05-11T16:42:38.698Z,75.87
2019-05-11T16:45:43.315Z,76.53
2019-05-11T16:48:47.752Z,76.42
2019-05-11T16:51:52.498Z,78.17
2019-05-11T16:54:58.315Z,79.59
2019-05-11T16:58:02.858Z,79.35
2019-05-11T17:01:08.615Z,78.52
2019-05-11T17:04:13.671Z,79.67
2019-05-11T17:07:18.131Z,79.98
2019-05-11T17:10:23.033Z,79.97
2019-05-11T17:13:27.543Z,81.01
2019-05-11T17:16:31.982Z,81.11
2019-05-11T17:19:45.441Z,79.48
2019-05-11T17:22:42.893Z,79.82
2019-05-11T17:25:48.403Z,79.55
2019-05-11T17:28:53.271Z,79.22
2019-05-11T17:31:58.070Z,79.77
2019-05-11T17:35:03.029Z,78.52
2019-05-11T17:38:08.058Z,78.86
2019-05-11T17:41:12.904Z,78.26
2019-05-11T17:44:18.561Z,78.29
2019-05-11T17:47:23.750Z,79.39
2019-05-11T17:50:28.388Z,77.79
2019-05-11T17:53:33.051Z,78.59
2019-05-11T17:56:38.852Z,78.71
2019-05-11T17:59:43.516Z,78.50
2019-05-11T18:02:49.007Z,78.69
2019-05-11T18:05:53.925Z,76.40
2019-05-11T18:08:58.506Z,78.42
2019-05-11T18:12:02.883Z,76.04
2019-05-11T18:15:08.584Z,76.30
2019-05-11T18:18:13.258Z,75.83
2019-05-11T18:21:18.815Z,75.63
2019-05-11T18:24:23.740Z,76.69
2019-05-11T18:27:28.178Z,76.44
2019-05-11T18:30:32.636Z,76.23
2019-05-11T18:33:38.184Z,77.15
2019-05-11T18:36:43.066Z,77.15
2019-05-11T18:39:48.454Z,77.55
2019-05-11T18:42:53.025Z,76.81
2019-05-11T18:45:58.126Z,78.00
2019-05-11T18:49:03.222Z,77.90
2019-05-11T18:52:08.232Z,77.36
2019-05-11T18:55:13.117Z,76.93
2019-05-11T18:58:18.391Z,77.32
2019-05-11T19:01:23.483Z,78.78
2019-05-11T19:04:28.714Z,78.17
2019-05-11T19:07:33.440Z,79.57
2019-05-11T19:10:38.412Z,79.02
2019-05-11T19:13:43.074Z,79.58
2019-05-11T19:16:49.154Z,79.13
2019-05-11T19:19:53.734Z,79.42
2019-05-11T19:22:59.008Z,79.87
2019-05-11T19:26:03.884Z,80.03
2019-05-11T19:29:09.046Z,78.84
2019-05-11T19:32:13.648Z,80.05
2019-05-11T19:35:21.251Z,78.92
2019-05-11T19:38:24.537Z,78.11
2019-05-11T19:41:29.282Z,79.16
2019-05-11T19:44:34.008Z,78.72
2019-05-11T19:47:38.444Z,78.97
2019-05-11T19:50:43.171Z,79.15
2019-05-11T19:53:48.402Z,79.89
2019-05-11T19:56:53.349Z,79.75
2019-05-11T19:59:58.387Z,78.46
2019-05-11T20:03:03.213Z,78.06
2019-05-11T20:06:08.743Z,79.60
2019-05-11T20:09:13.410Z,79.41
2019-05-11T20:12:18.136Z,78.97
2019-05-11T20:15:22.859Z,79.10
2019-05-11T20:18:28.895Z,79.67
2019-05-11T20:21:34.463Z,79.18
2019-05-11T20:24:38.903Z,78.70
2019-05-11T20:27:44.743Z,77.95
2019-05-11T20:30:49.475Z,78.30
2019-05-11T20:33:53.911Z,77.99
2019-05-11T20:36:58.839Z,78.82
2019-05-11T20:40:04.077Z,78.92
2019-05-11T20:43:08.813Z,78.94
2019-05-11T20:46:13.254Z,78.52
2019-05-11T20:49:17.965Z,78.44
2019-05-11T20:52:22.408Z,79.63
2019-05-11T20:55:28.418Z,78.09
2019-05-11T20:58:35.024Z,79.21
2019-05-11T21:01:39.476Z,79.41
2019-05-11T21:04:44.181Z,78.92
2019-05-11T21:07:48.621Z,78.76
2019-05-11T21:10:53.134Z,78.62
2019-05-11T21:13:57.576Z,79.44
2019-05-11T21:17:02.287Z,78.91
2019-05-11T21:20:10.020Z,78.78
2019-05-11T21:23:14.709Z,79.98
2019-05-11T21:26:19.158Z,79.58
2019-05-11T21:29:23.605Z,79.72
2019-05-11T21:32:28.393Z,78.82
2019-05-11T21:35:33.706Z,77.66
2019-05-11T21:38:38.604Z,78.36
2019-05-11T21:41:43.506Z,77.47
2019-05-11T21:44:47.935Z,78.70
2019-05-11T21:47:52.381Z,78.48
2019-05-11T21:50:59.702Z,78.35
2019-05-11T21:54:03.250Z,78.87
2019-05-11T21:57:08.359Z,78.33
2019-05-11T22:00:13.728Z,77.81
2019-05-11T22:03:18.937Z,77.30
2019-05-11T22:06:23.809Z,78.18
2019-05-11T22:09:28.240Z,78.81
2019-05-11T22:12:32.687Z,78.87
2019-05-11T22:15:38.581Z,78.44
2019-05-11T22:18:43.553Z,78.02
2019-05-11T22:21:49.670Z,78.38
2019-05-11T22:24:54.548Z,77.91
2019-05-11T22:27:59.004Z,77.08
2019-05-11T22:31:03.440Z,78.26
2019-05-11T22:34:08.916Z,79.22
2019-05-11T22:37:13.512Z,78.52
2019-05-11T22:40:18.508Z,79.27
2019-05-11T22:43:23.241Z,78.77
2019-05-11T22:46:28.170Z,79.45
2019-05-11T22:49:33.111Z,79.75
2019-05-11T22:52:40.247Z,79.54
2019-05-11T22:55:44.755Z,80.13
2019-05-11T22:58:49.905Z,79.81
2019-05-11T23:01:54.507Z,78.48
2019-05-11T23:04:59.321Z,79.37
2019-05-11T23:08:07.525Z,78.39
2019-05-11T23:11:11.770Z,78.54
2019-05-11T23:14:17.711Z,78.23
2019-05-11T23:17:22.653Z,78.38
2019-05-11T23:20:29.982Z,77.77
2019-05-11T23:23:33.312Z,77.18
2019-05-11T23:26:38.655Z,77.17
2019-05-11T23:29:43.280Z,77.08
2019-05-11T23:32:48.573Z,77.83
2019-05-11T23:35:53.232Z,77.80
2019-05-11T23:38:58.579Z,78.39
2019-05-11T23:42:03.182Z,79.22
2019-05-11T23:45:09.436Z,77.72
2019-05-11T23:48:13.873Z,77.40
2019-05-11T23:51:18.372Z,77.99
2019-05-11T23:54:23.101Z,77.62
2019-05-11T23:57:27.535Z,78.18
